sensor_id;sensor_type;location;lat;lon;timestamp;temperature;humidity
27544;DHT22;17996;51.056;3.656;2022-11-11T00:01:08;12.70;99.90
27544;DHT22;17996;51.056;3.656;2022-11-11T00:03:34;12.60;99.90
27544;DHT22;17996;51.056;3.656;2022-11-11T00:06:04;12.60;99.90
27544;DHT22;17996;51.056;3.656;2022-11-11T00:08:30;12.60;99.90
27544;DHT22;17996;51.056;3.656;2022-11-11T00:11:08;12.60;99.90
27544;DHT22;17996;51.056;3.656;2022-11-11T00:13:35;12.60;99.90
27544;DHT22;17996;51.056;3.656;2022-11-11T00:16:24;12.50;99.90
27544;DHT22;17996;51.056;3.656;2022-11-11T00:18:49;12.50;99.90
27544;DHT22;17996;51.056;3.656;2022-11-11T00:21:33;12.60;99.90
27544;DHT22;17996;51.056;3.656;2022-11-11T00:24:28;12.60;99.90
27544;DHT22;17996;51.056;3.656;2022-11-11T00:27:14;12.60;99.90
27544;DHT22;17996;51.056;3.656;2022-11-11T00:29:40;12.60;99.90
27544;DHT22;17996;51.056;3.656;2022-11-11T00:32:07;12.50;99.90
27544;DHT22;17996;51.056;3.656;2022-11-11T00:34:51;12.50;99.90
27544;DHT22;17996;51.056;3.656;2022-11-11T00:37:36;12.50;99.90
27544;DHT22;17996;51.056;3.656;2022-11-11T00:40:02;12.50;99.90
27544;DHT22;17996;51.056;3.656;2022-11-11T00:42:28;12.50;99.90
27544;DHT22;17996;51.056;3.656;2022-11-11T00:44:54;12.50;99.90
27544;DHT22;17996;51.056;3.656;2022-11-11T00:47:19;12.70;99.90
27544;DHT22;17996;51.056;3.656;2022-11-11T00:50:08;12.50;99.90
27544;DHT22;17996;51.056;3.656;2022-11-11T00:52:53;12.50;99.90
27544;DHT22;17996;51.056;3.656;2022-11-11T00:55:18;12.50;99.90
27544;DHT22;17996;51.056;3.656;2022-11-11T00:57:44;12.50;99.90
27544;DHT22;17996;51.056;3.656;2022-11-11T01:00:10;12.50;99.90
27544;DHT22;17996;51.056;3.656;2022-11-11T01:02:36;12.50;99.90
27544;DHT22;17996;51.056;3.656;2022-11-11T01:05:01;12.50;99.90
27544;DHT22;17996;51.056;3.656;2022-11-11T01:07:27;12.50;99.90
27544;DHT22;17996;51.056;3.656;2022-11-11T01:09:53;12.50;99.90
27544;DHT22;17996;51.056;3.656;2022-11-11T01:12:18;12.60;99.90
27544;DHT22;17996;51.056;3.656;2022-11-11T01:14:44;12.50;99.90
27544;DHT22;17996;51.056;3.656;2022-11-11T01:17:10;12.40;99.90
27544;DHT22;17996;51.056;3.656;2022-11-11T01:19:35;12.50;99.90
27544;DHT22;17996;51.056;3.656;2022-11-11T01:22:01;12.40;99.90
27544;DHT22;17996;51.056;3.656;2022-11-11T01:24:27;12.60;99.90
27544;DHT22;17996;51.056;3.656;2022-11-11T01:26:52;12.40;99.90
27544;DHT22;17996;51.056;3.656;2022-11-11T01:29:18;12.50;99.90
27544;DHT22;17996;51.056;3.656;2022-11-11T01:31:44;12.40;99.90
27544;DHT22;17996;51.056;3.656;2022-11-11T01:34:10;12.40;99.90
27544;DHT22;17996;51.056;3.656;2022-11-11T01:36:35;12.40;99.90
27544;DHT22;17996;51.056;3.656;2022-11-11T01:39:01;12.60;99.90
27544;DHT22;17996;51.056;3.656;2022-11-11T01:41:33;12.40;99.90
27544;DHT22;17996;51.056;3.656;2022-11-11T01:44:00;12.40;99.90
27544;DHT22;17996;51.056;3.656;2022-11-11T01:46:32;12.40;99.90
27544;DHT22;17996;51.056;3.656;2022-11-11T01:52:23;12.40;99.90
27544;DHT22;17996;51.056;3.656;2022-11-11T01:57:40;12.40;99.90
27544;DHT22;17996;51.056;3.656;2022-11-11T02:00:10;12.40;99.90
27544;DHT22;17996;51.056;3.656;2022-11-11T02:02:45;12.40;99.90
27544;DHT22;17996;51.056;3.656;2022-11-11T02:05:15;12.40;99.90
27544;DHT22;17996;51.056;3.656;2022-11-11T02:08:03;12.30;99.90
27544;DHT22;17996;51.056;3.656;2022-11-11T02:10:31;12.30;99.90
27544;DHT22;17996;51.056;3.656;2022-11-11T02:12:58;12.30;99.90
27544;DHT22;17996;51.056;3.656;2022-11-11T02:15:43;12.30;99.90
27544;DHT22;17996;51.056;3.656;2022-11-11T02:18:10;12.30;99.90
27544;DHT22;17996;51.056;3.656;2022-11-11T02:20:42;12.30;99.90
27544;DHT22;17996;51.056;3.656;2022-11-11T02:23:18;12.40;99.90
27544;DHT22;17996;51.056;3.656;2022-11-11T02:25:48;12.30;99.90
27544;DHT22;17996;51.056;3.656;2022-11-11T02:28:15;12.30;99.90
27544;DHT22;17996;51.056;3.656;2022-11-11T02:30:42;12.30;99.90
27544;DHT22;17996;51.056;3.656;2022-11-11T02:33:07;12.30;99.90
27544;DHT22;17996;51.056;3.656;2022-11-11T02:35:36;12.30;99.90
27544;DHT22;17996;51.056;3.656;2022-11-11T02:38:05;12.30;99.90
27544;DHT22;17996;51.056;3.656;2022-11-11T02:40:42;12.30;99.90
27544;DHT22;17996;51.056;3.656;2022-11-11T02:43:32;12.30;99.90
27544;DHT22;17996;51.056;3.656;2022-11-11T02:45:59;12.20;99.90
27544;DHT22;17996;51.056;3.656;2022-11-11T02:48:25;12.20;99.90
27544;DHT22;17996;51.056;3.656;2022-11-11T02:50:52;12.20;99.90
27544;DHT22;17996;51.056;3.656;2022-11-11T02:53:18;12.20;99.90
27544;DHT22;17996;51.056;3.656;2022-11-11T02:55:43;12.20;99.90
27544;DHT22;17996;51.056;3.656;2022-11-11T02:58:09;12.20;99.90
27544;DHT22;17996;51.056;3.656;2022-11-11T03:00:35;12.20;99.90
27544;DHT22;17996;51.056;3.656;2022-11-11T03:03:01;12.20;99.90
27544;DHT22;17996;51.056;3.656;2022-11-11T03:05:26;12.10;99.90
27544;DHT22;17996;51.056;3.656;2022-11-11T03:07:52;12.30;99.90
27544;DHT22;17996;51.056;3.656;2022-11-11T03:10:17;12.20;99.90
27544;DHT22;17996;51.056;3.656;2022-11-11T03:12:43;12.10;99.90
27544;DHT22;17996;51.056;3.656;2022-11-11T03:15:09;12.10;99.90
27544;DHT22;17996;51.056;3.656;2022-11-11T03:17:35;12.10;99.90
27544;DHT22;17996;51.056;3.656;2022-11-11T03:20:11;12.20;99.90
27544;DHT22;17996;51.056;3.656;2022-11-11T03:25:33;12.20;99.90
27544;DHT22;17996;51.056;3.656;2022-11-11T03:28:05;12.20;99.90
27544;DHT22;17996;51.056;3.656;2022-11-11T03:30:31;12.00;99.90
27544;DHT22;17996;51.056;3.656;2022-11-11T03:33:00;12.10;99.90
27544;DHT22;17996;51.056;3.656;2022-11-11T03:35:26;12.00;99.90
27544;DHT22;17996;51.056;3.656;2022-11-11T03:37:52;12.00;99.90
27544;DHT22;17996;51.056;3.656;2022-11-11T03:40:36;12.00;99.90
27544;DHT22;17996;51.056;3.656;2022-11-11T03:43:02;12.10;99.90
27544;DHT22;17996;51.056;3.656;2022-11-11T03:45:28;12.10;99.90
27544;DHT22;17996;51.056;3.656;2022-11-11T03:47:53;12.10;99.90
27544;DHT22;17996;51.056;3.656;2022-11-11T03:50:20;11.90;99.90
27544;DHT22;17996;51.056;3.656;2022-11-11T03:52:46;11.90;99.90
27544;DHT22;17996;51.056;3.656;2022-11-11T03:55:12;12.10;99.90
27544;DHT22;17996;51.056;3.656;2022-11-11T03:57:41;12.00;99.90
27544;DHT22;17996;51.056;3.656;2022-11-11T04:00:13;12.00;99.90
27544;DHT22;17996;51.056;3.656;2022-11-11T04:02:39;12.00;99.90
27544;DHT22;17996;51.056;3.656;2022-11-11T04:05:23;11.90;99.90
27544;DHT22;17996;51.056;3.656;2022-11-11T04:08:16;11.90;99.90
27544;DHT22;17996;51.056;3.656;2022-11-11T04:11:13;11.90;99.90
27544;DHT22;17996;51.056;3.656;2022-11-11T04:13:41;11.90;99.90
27544;DHT22;17996;51.056;3.656;2022-11-11T04:16:26;12.00;99.90
27544;DHT22;17996;51.056;3.656;2022-11-11T04:18:51;11.90;99.90
27544;DHT22;17996;51.056;3.656;2022-11-11T04:21:35;11.90;99.90
27544;DHT22;17996;51.056;3.656;2022-11-11T04:24:14;11.90;99.90
27544;DHT22;17996;51.056;3.656;2022-11-11T04:27:01;11.90;99.90
27544;DHT22;17996;51.056;3.656;2022-11-11T04:29:27;11.80;99.90
27544;DHT22;17996;51.056;3.656;2022-11-11T04:31:57;11.90;99.90
27544;DHT22;17996;51.056;3.656;2022-11-11T04:34:49;11.90;99.90
27544;DHT22;17996;51.056;3.656;2022-11-11T04:37:16;11.80;99.90
27544;DHT22;17996;51.056;3.656;2022-11-11T04:39:42;11.80;99.90
27544;DHT22;17996;51.056;3.656;2022-11-11T04:42:27;11.80;99.90
27544;DHT22;17996;51.056;3.656;2022-11-11T04:44:53;11.80;99.90
27544;DHT22;17996;51.056;3.656;2022-11-11T04:47:37;11.80;99.90
27544;DHT22;17996;51.056;3.656;2022-11-11T04:50:03;11.80;99.90
27544;DHT22;17996;51.056;3.656;2022-11-11T04:52:30;11.80;99.90
27544;DHT22;17996;51.056;3.656;2022-11-11T04:54:57;11.80;99.90
27544;DHT22;17996;51.056;3.656;2022-11-11T04:58:01;11.80;99.90
27544;DHT22;17996;51.056;3.656;2022-11-11T05:00:27;11.80;99.90
27544;DHT22;17996;51.056;3.656;2022-11-11T05:02:54;11.80;99.90
27544;DHT22;17996;51.056;3.656;2022-11-11T05:05:38;11.80;99.90
27544;DHT22;17996;51.056;3.656;2022-11-11T05:08:22;11.70;99.90
27544;DHT22;17996;51.056;3.656;2022-11-11T05:11:06;11.80;99.90
27544;DHT22;17996;51.056;3.656;2022-11-11T05:13:32;11.80;99.90
27544;DHT22;17996;51.056;3.656;2022-11-11T05:16:20;11.80;99.90
27544;DHT22;17996;51.056;3.656;2022-11-11T05:19:05;11.70;99.90
27544;DHT22;17996;51.056;3.656;2022-11-11T05:21:52;11.70;99.90
27544;DHT22;17996;51.056;3.656;2022-11-11T05:24:19;11.70;99.90
27544;DHT22;17996;51.056;3.656;2022-11-11T05:27:04;11.80;99.90
27544;DHT22;17996;51.056;3.656;2022-11-11T05:29:29;11.70;99.90
27544;DHT22;17996;51.056;3.656;2022-11-11T05:31:55;11.60;99.90
27544;DHT22;17996;51.056;3.656;2022-11-11T05:34:20;11.60;99.90
27544;DHT22;17996;51.056;3.656;2022-11-11T05:36:46;11.60;99.90
27544;DHT22;17996;51.056;3.656;2022-11-11T05:39:12;11.80;99.90
27544;DHT22;17996;51.056;3.656;2022-11-11T05:41:37;11.70;99.90
27544;DHT22;17996;51.056;3.656;2022-11-11T05:44:03;11.60;99.90
27544;DHT22;17996;51.056;3.656;2022-11-11T05:46:28;11.60;99.90
27544;DHT22;17996;51.056;3.656;2022-11-11T05:48:54;11.60;99.90
27544;DHT22;17996;51.056;3.656;2022-11-11T05:51:38;11.50;99.90
27544;DHT22;17996;51.056;3.656;2022-11-11T05:54:04;11.70;99.90
27544;DHT22;17996;51.056;3.656;2022-11-11T05:56:29;11.60;99.90
27544;DHT22;17996;51.056;3.656;2022-11-11T05:58:55;11.50;99.90
27544;DHT22;17996;51.056;3.656;2022-11-11T06:01:21;11.60;99.90
27544;DHT22;17996;51.056;3.656;2022-11-11T06:03:47;11.60;99.90
27544;DHT22;17996;51.056;3.656;2022-11-11T06:06:12;11.50;99.90
27544;DHT22;17996;51.056;3.656;2022-11-11T06:08:38;11.70;99.90
27544;DHT22;17996;51.056;3.656;2022-11-11T06:11:04;11.80;99.90
27544;DHT22;17996;51.056;3.656;2022-11-11T06:13:30;11.80;99.90
27544;DHT22;17996;51.056;3.656;2022-11-11T06:15:56;11.60;99.90
27544;DHT22;17996;51.056;3.656;2022-11-11T06:18:22;11.70;99.90
27544;DHT22;17996;51.056;3.656;2022-11-11T06:20:55;11.70;99.90
27544;DHT22;17996;51.056;3.656;2022-11-11T06:23:21;11.60;99.90
27544;DHT22;17996;51.056;3.656;2022-11-11T06:25:48;11.60;99.90
27544;DHT22;17996;51.056;3.656;2022-11-11T06:28:32;11.60;99.90
27544;DHT22;17996;51.056;3.656;2022-11-11T06:30:58;11.60;99.90
27544;DHT22;17996;51.056;3.656;2022-11-11T06:33:24;11.70;99.90
27544;DHT22;17996;51.056;3.656;2022-11-11T06:35:50;11.60;99.90
27544;DHT22;17996;51.056;3.656;2022-11-11T06:38:16;11.60;99.90
27544;DHT22;17996;51.056;3.656;2022-11-11T06:40:42;11.70;99.90
27544;DHT22;17996;51.056;3.656;2022-11-11T06:43:08;11.70;99.90
27544;DHT22;17996;51.056;3.656;2022-11-11T06:45:34;11.70;99.90
27544;DHT22;17996;51.056;3.656;2022-11-11T06:48:04;11.60;99.90
27544;DHT22;17996;51.056;3.656;2022-11-11T06:50:31;11.60;99.90
27544;DHT22;17996;51.056;3.656;2022-11-11T06:53:03;11.60;99.90
27544;DHT22;17996;51.056;3.656;2022-11-11T06:55:29;11.80;99.90
27544;DHT22;17996;51.056;3.656;2022-11-11T06:57:54;11.70;99.90
27544;DHT22;17996;51.056;3.656;2022-11-11T07:00:20;11.60;99.90
27544;DHT22;17996;51.056;3.656;2022-11-11T07:02:46;11.60;99.90
27544;DHT22;17996;51.056;3.656;2022-11-11T07:05:12;11.60;99.90
27544;DHT22;17996;51.056;3.656;2022-11-11T07:07:37;11.50;99.90
27544;DHT22;17996;51.056;3.656;2022-11-11T07:10:04;11.60;99.90
27544;DHT22;17996;51.056;3.656;2022-11-11T07:12:31;11.60;99.90
27544;DHT22;17996;51.056;3.656;2022-11-11T07:14:57;11.60;99.90
27544;DHT22;17996;51.056;3.656;2022-11-11T07:17:23;11.50;99.90
27544;DHT22;17996;51.056;3.656;2022-11-11T07:19:48;11.50;99.90
27544;DHT22;17996;51.056;3.656;2022-11-11T07:22:14;11.70;99.90
27544;DHT22;17996;51.056;3.656;2022-11-11T07:24:40;11.50;99.90
27544;DHT22;17996;51.056;3.656;2022-11-11T07:27:05;11.50;99.90
27544;DHT22;17996;51.056;3.656;2022-11-11T07:29:31;11.50;99.90
27544;DHT22;17996;51.056;3.656;2022-11-11T07:31:56;11.50;99.90
27544;DHT22;17996;51.056;3.656;2022-11-11T07:34:22;11.50;99.90
27544;DHT22;17996;51.056;3.656;2022-11-11T07:36:48;11.40;99.90
27544;DHT22;17996;51.056;3.656;2022-11-11T07:39:13;11.50;99.90
27544;DHT22;17996;51.056;3.656;2022-11-11T07:41:39;11.50;99.90
27544;DHT22;17996;51.056;3.656;2022-11-11T07:44:05;11.60;99.90
27544;DHT22;17996;51.056;3.656;2022-11-11T07:46:30;11.60;99.90
27544;DHT22;17996;51.056;3.656;2022-11-11T07:48:56;11.50;99.90
27544;DHT22;17996;51.056;3.656;2022-11-11T07:51:21;11.40;99.90
27544;DHT22;17996;51.056;3.656;2022-11-11T07:53:47;11.40;99.90
27544;DHT22;17996;51.056;3.656;2022-11-11T07:56:13;11.40;99.90
27544;DHT22;17996;51.056;3.656;2022-11-11T07:58:39;11.50;99.90
27544;DHT22;17996;51.056;3.656;2022-11-11T08:01:04;11.50;99.90
27544;DHT22;17996;51.056;3.656;2022-11-11T08:03:30;11.60;99.90
27544;DHT22;17996;51.056;3.656;2022-11-11T08:05:56;11.70;99.90
27544;DHT22;17996;51.056;3.656;2022-11-11T08:08:22;11.70;99.90
27544;DHT22;17996;51.056;3.656;2022-11-11T08:10:54;11.70;99.90
27544;DHT22;17996;51.056;3.656;2022-11-11T08:13:20;11.80;99.90
27544;DHT22;17996;51.056;3.656;2022-11-11T08:16:07;11.70;99.90
27544;DHT22;17996;51.056;3.656;2022-11-11T08:18:33;11.70;99.90
27544;DHT22;17996;51.056;3.656;2022-11-11T08:21:00;11.80;99.90
27544;DHT22;17996;51.056;3.656;2022-11-11T08:23:26;11.80;99.90
27544;DHT22;17996;51.056;3.656;2022-11-11T08:26:04;11.70;99.90
27544;DHT22;17996;51.056;3.656;2022-11-11T08:28:32;11.80;99.90
27544;DHT22;17996;51.056;3.656;2022-11-11T08:30:59;11.60;99.90
27544;DHT22;17996;51.056;3.656;2022-11-11T08:33:25;11.70;99.90
27544;DHT22;17996;51.056;3.656;2022-11-11T08:35:52;11.70;99.90
27544;DHT22;17996;51.056;3.656;2022-11-11T08:38:21;11.70;99.90
27544;DHT22;17996;51.056;3.656;2022-11-11T08:40:48;11.70;99.90
27544;DHT22;17996;51.056;3.656;2022-11-11T08:43:14;11.70;99.90
27544;DHT22;17996;51.056;3.656;2022-11-11T08:45:39;11.80;99.90
27544;DHT22;17996;51.056;3.656;2022-11-11T08:48:07;11.80;99.90
27544;DHT22;17996;51.056;3.656;2022-11-11T08:50:36;11.90;99.90
27544;DHT22;17996;51.056;3.656;2022-11-11T08:53:03;11.80;99.90
27544;DHT22;17996;51.056;3.656;2022-11-11T08:55:28;11.90;99.90
27544;DHT22;17996;51.056;3.656;2022-11-11T08:57:58;11.80;99.90
27544;DHT22;17996;51.056;3.656;2022-11-11T09:00:24;11.90;99.90
27544;DHT22;17996;51.056;3.656;2022-11-11T09:02:51;12.00;99.90
27544;DHT22;17996;51.056;3.656;2022-11-11T09:05:17;12.10;99.90
27544;DHT22;17996;51.056;3.656;2022-11-11T09:07:43;12.00;99.90
27544;DHT22;17996;51.056;3.656;2022-11-11T09:10:08;11.90;99.90
27544;DHT22;17996;51.056;3.656;2022-11-11T09:12:34;12.00;99.90
27544;DHT22;17996;51.056;3.656;2022-11-11T09:15:00;12.00;99.90
27544;DHT22;17996;51.056;3.656;2022-11-11T09:17:26;12.00;99.90
27544;DHT22;17996;51.056;3.656;2022-11-11T09:19:52;12.10;99.90
27544;DHT22;17996;51.056;3.656;2022-11-11T09:22:17;12.20;99.90
27544;DHT22;17996;51.056;3.656;2022-11-11T09:24:43;12.20;99.90
27544;DHT22;17996;51.056;3.656;2022-11-11T09:27:10;12.40;99.90
27544;DHT22;17996;51.056;3.656;2022-11-11T09:29:36;12.30;99.90
27544;DHT22;17996;51.056;3.656;2022-11-11T09:32:02;12.20;99.90
27544;DHT22;17996;51.056;3.656;2022-11-11T09:34:29;12.30;99.90
27544;DHT22;17996;51.056;3.656;2022-11-11T09:36:54;12.30;99.90
27544;DHT22;17996;51.056;3.656;2022-11-11T09:39:20;12.30;99.90
27544;DHT22;17996;51.056;3.656;2022-11-11T09:44:41;12.30;99.90
27544;DHT22;17996;51.056;3.656;2022-11-11T09:50:02;12.40;99.90
27544;DHT22;17996;51.056;3.656;2022-11-11T09:55:05;12.50;99.90
27544;DHT22;17996;51.056;3.656;2022-11-11T10:00:23;12.50;99.90
27544;DHT22;17996;51.056;3.656;2022-11-11T10:08:18;12.90;99.90
27544;DHT22;17996;51.056;3.656;2022-11-11T10:10:46;12.80;99.90
27544;DHT22;17996;51.056;3.656;2022-11-11T10:13:32;12.90;99.90
27544;DHT22;17996;51.056;3.656;2022-11-11T10:18:56;13.00;99.90
27544;DHT22;17996;51.056;3.656;2022-11-11T10:21:50;13.00;99.90
27544;DHT22;17996;51.056;3.656;2022-11-11T10:24:25;13.00;99.90
27544;DHT22;17996;51.056;3.656;2022-11-11T10:26:52;13.00;99.90
27544;DHT22;17996;51.056;3.656;2022-11-11T10:29:20;13.10;99.90
27544;DHT22;17996;51.056;3.656;2022-11-11T10:32:00;13.20;99.90
27544;DHT22;17996;51.056;3.656;2022-11-11T10:34:36;13.10;99.90
27544;DHT22;17996;51.056;3.656;2022-11-11T10:37:02;13.00;99.90
27544;DHT22;17996;51.056;3.656;2022-11-11T10:42:17;13.00;99.90
27544;DHT22;17996;51.056;3.656;2022-11-11T10:44:43;12.90;99.90
27544;DHT22;17996;51.056;3.656;2022-11-11T10:47:41;13.00;99.90
27544;DHT22;17996;51.056;3.656;2022-11-11T10:50:20;12.80;99.90
27544;DHT22;17996;51.056;3.656;2022-11-11T10:52:56;12.80;99.90
27544;DHT22;17996;51.056;3.656;2022-11-11T10:58:25;12.80;99.90
27544;DHT22;17996;51.056;3.656;2022-11-11T11:00:53;12.80;99.90
27544;DHT22;17996;51.056;3.656;2022-11-11T11:03:33;12.80;99.90
27544;DHT22;17996;51.056;3.656;2022-11-11T11:06:29;12.80;99.90
27544;DHT22;17996;51.056;3.656;2022-11-11T11:09:12;12.80;99.90
27544;DHT22;17996;51.056;3.656;2022-11-11T11:14:33;12.80;99.90
27544;DHT22;17996;51.056;3.656;2022-11-11T11:17:12;12.80;99.90
27544;DHT22;17996;51.056;3.656;2022-11-11T11:19:38;12.90;99.90
27544;DHT22;17996;51.056;3.656;2022-11-11T11:22:03;12.80;99.90
27544;DHT22;17996;51.056;3.656;2022-11-11T11:24:34;12.80;99.90
27544;DHT22;17996;51.056;3.656;2022-11-11T11:27:07;12.80;99.90
27544;DHT22;17996;51.056;3.656;2022-11-11T11:29:38;12.80;99.90
27544;DHT22;17996;51.056;3.656;2022-11-11T11:37:15;12.70;99.90
27544;DHT22;17996;51.056;3.656;2022-11-11T11:39:41;12.80;99.90
27544;DHT22;17996;51.056;3.656;2022-11-11T11:42:07;12.90;99.90
27544;DHT22;17996;51.056;3.656;2022-11-11T11:44:38;12.80;99.90
27544;DHT22;17996;51.056;3.656;2022-11-11T11:50:20;12.70;99.90
27544;DHT22;17996;51.056;3.656;2022-11-11T11:53:12;12.70;99.90
27544;DHT22;17996;51.056;3.656;2022-11-11T11:55:45;12.70;99.90
27544;DHT22;17996;51.056;3.656;2022-11-11T12:01:23;12.80;99.90
27544;DHT22;17996;51.056;3.656;2022-11-11T12:07:03;12.90;99.90
27544;DHT22;17996;51.056;3.656;2022-11-11T12:14:57;12.90;99.90
27544;DHT22;17996;51.056;3.656;2022-11-11T12:23:18;13.00;99.90
27544;DHT22;17996;51.056;3.656;2022-11-11T12:26:20;13.00;99.90
27544;DHT22;17996;51.056;3.656;2022-11-11T12:28:55;13.10;99.90
27544;DHT22;17996;51.056;3.656;2022-11-11T12:36:39;13.10;99.90
27544;DHT22;17996;51.056;3.656;2022-11-11T12:44:50;13.20;99.90
27544;DHT22;17996;51.056;3.656;2022-11-11T12:53:11;13.30;99.90
27544;DHT22;17996;51.056;3.656;2022-11-11T12:56:03;13.50;99.90
27544;DHT22;17996;51.056;3.656;2022-11-11T13:04:21;13.60;99.90
27544;DHT22;17996;51.056;3.656;2022-11-11T13:06:55;13.60;99.90
27544;DHT22;17996;51.056;3.656;2022-11-11T13:09:36;13.70;99.90
27544;DHT22;17996;51.056;3.656;2022-11-11T13:12:06;13.70;99.90
27544;DHT22;17996;51.056;3.656;2022-11-11T13:17:26;13.80;99.90
27544;DHT22;17996;51.056;3.656;2022-11-11T13:19:53;13.80;99.90
27544;DHT22;17996;51.056;3.656;2022-11-11T13:24:49;13.80;99.90
27544;DHT22;17996;51.056;3.656;2022-11-11T13:27:22;14.00;99.90
27544;DHT22;17996;51.056;3.656;2022-11-11T13:30:00;13.90;99.90
27544;DHT22;17996;51.056;3.656;2022-11-11T13:32:32;13.80;99.90
27544;DHT22;17996;51.056;3.656;2022-11-11T13:35:00;13.90;99.90
27544;DHT22;17996;51.056;3.656;2022-11-11T13:37:28;13.80;99.90
27544;DHT22;17996;51.056;3.656;2022-11-11T13:40:07;13.80;99.90
27544;DHT22;17996;51.056;3.656;2022-11-11T13:42:40;13.80;99.90
27544;DHT22;17996;51.056;3.656;2022-11-11T13:45:18;13.80;99.90
27544;DHT22;17996;51.056;3.656;2022-11-11T13:47:46;13.80;99.90
27544;DHT22;17996;51.056;3.656;2022-11-11T13:50:32;13.80;99.90
27544;DHT22;17996;51.056;3.656;2022-11-11T13:55:38;14.00;99.90
27544;DHT22;17996;51.056;3.656;2022-11-11T13:58:05;13.90;99.90
27544;DHT22;17996;51.056;3.656;2022-11-11T14:00:35;13.80;99.90
27544;DHT22;17996;51.056;3.656;2022-11-11T14:03:28;13.80;99.90
27544;DHT22;17996;51.056;3.656;2022-11-11T14:14:43;13.80;99.90
27544;DHT22;17996;51.056;3.656;2022-11-11T14:27:12;13.80;99.90
27544;DHT22;17996;51.056;3.656;2022-11-11T14:29:51;13.80;99.90
27544;DHT22;17996;51.056;3.656;2022-11-11T14:40:11;13.80;99.90
27544;DHT22;17996;51.056;3.656;2022-11-11T14:47:58;13.90;99.90
27544;DHT22;17996;51.056;3.656;2022-11-11T14:52:53;13.70;99.90
27544;DHT22;17996;51.056;3.656;2022-11-11T14:55:35;13.70;99.90
27544;DHT22;17996;51.056;3.656;2022-11-11T15:08:48;13.50;99.90
27544;DHT22;17996;51.056;3.656;2022-11-11T15:11:32;13.40;99.90
27544;DHT22;17996;51.056;3.656;2022-11-11T15:23:01;13.30;99.90
27544;DHT22;17996;51.056;3.656;2022-11-11T15:25:51;13.20;99.90
27544;DHT22;17996;51.056;3.656;2022-11-11T15:28:49;13.10;99.90
27544;DHT22;17996;51.056;3.656;2022-11-11T15:36:57;12.90;99.90
27544;DHT22;17996;51.056;3.656;2022-11-11T15:39:26;12.90;99.90
27544;DHT22;17996;51.056;3.656;2022-11-11T15:41:56;12.80;99.90
27544;DHT22;17996;51.056;3.656;2022-11-11T15:44:25;12.80;99.90
27544;DHT22;17996;51.056;3.656;2022-11-11T15:46:52;12.70;99.90
27544;DHT22;17996;51.056;3.656;2022-11-11T15:52:04;12.60;99.90
27544;DHT22;17996;51.056;3.656;2022-11-11T15:54:32;12.60;99.90
27544;DHT22;17996;51.056;3.656;2022-11-11T15:56:58;12.60;99.90
27544;DHT22;17996;51.056;3.656;2022-11-11T15:59:29;12.50;99.90
27544;DHT22;17996;51.056;3.656;2022-11-11T16:01:56;12.40;99.90
27544;DHT22;17996;51.056;3.656;2022-11-11T16:04:24;12.40;99.90
27544;DHT22;17996;51.056;3.656;2022-11-11T16:06:50;12.40;99.90
27544;DHT22;17996;51.056;3.656;2022-11-11T16:09:23;12.30;99.90
27544;DHT22;17996;51.056;3.656;2022-11-11T16:11:52;12.30;99.90
27544;DHT22;17996;51.056;3.656;2022-11-11T16:14:27;12.30;99.90
27544;DHT22;17996;51.056;3.656;2022-11-11T16:16:56;12.20;99.90
27544;DHT22;17996;51.056;3.656;2022-11-11T16:19:36;12.10;99.90
27544;DHT22;17996;51.056;3.656;2022-11-11T16:24:41;12.10;99.90
27544;DHT22;17996;51.056;3.656;2022-11-11T16:27:16;12.00;99.90
27544;DHT22;17996;51.056;3.656;2022-11-11T16:29:42;12.00;99.90
27544;DHT22;17996;51.056;3.656;2022-11-11T16:34:54;11.90;99.90
27544;DHT22;17996;51.056;3.656;2022-11-11T16:37:20;11.90;99.90
27544;DHT22;17996;51.056;3.656;2022-11-11T16:39:46;11.80;99.90
27544;DHT22;17996;51.056;3.656;2022-11-11T16:42:24;11.70;99.90
27544;DHT22;17996;51.056;3.656;2022-11-11T16:45:02;11.70;99.90
27544;DHT22;17996;51.056;3.656;2022-11-11T16:50:11;11.60;99.90
27544;DHT22;17996;51.056;3.656;2022-11-11T16:52:47;11.50;99.90
27544;DHT22;17996;51.056;3.656;2022-11-11T16:57:45;11.50;99.90
27544;DHT22;17996;51.056;3.656;2022-11-11T17:00:14;11.60;99.90
27544;DHT22;17996;51.056;3.656;2022-11-11T17:02:41;11.40;99.90
27544;DHT22;17996;51.056;3.656;2022-11-11T17:05:07;11.40;99.90
27544;DHT22;17996;51.056;3.656;2022-11-11T17:07:36;11.40;99.90
27544;DHT22;17996;51.056;3.656;2022-11-11T17:10:13;11.40;99.90
27544;DHT22;17996;51.056;3.656;2022-11-11T17:12:39;11.30;99.90
27544;DHT22;17996;51.056;3.656;2022-11-11T17:15:06;11.50;99.90
27544;DHT22;17996;51.056;3.656;2022-11-11T17:17:33;11.20;99.90
27544;DHT22;17996;51.056;3.656;2022-11-11T17:20:02;11.20;99.90
27544;DHT22;17996;51.056;3.656;2022-11-11T17:22:28;11.20;99.90
27544;DHT22;17996;51.056;3.656;2022-11-11T17:24:53;11.20;99.90
27544;DHT22;17996;51.056;3.656;2022-11-11T17:27:19;11.20;99.90
27544;DHT22;17996;51.056;3.656;2022-11-11T17:29:44;11.10;99.90
27544;DHT22;17996;51.056;3.656;2022-11-11T17:32:11;11.20;99.90
27544;DHT22;17996;51.056;3.656;2022-11-11T17:34:36;11.20;99.90
27544;DHT22;17996;51.056;3.656;2022-11-11T17:37:02;11.10;99.90
27544;DHT22;17996;51.056;3.656;2022-11-11T17:39:27;11.10;99.90
27544;DHT22;17996;51.056;3.656;2022-11-11T17:41:53;11.00;99.90
27544;DHT22;17996;51.056;3.656;2022-11-11T17:44:18;11.00;99.90
27544;DHT22;17996;51.056;3.656;2022-11-11T17:46:44;11.00;99.90
27544;DHT22;17996;51.056;3.656;2022-11-11T17:49:09;11.00;99.90
27544;DHT22;17996;51.056;3.656;2022-11-11T17:51:35;11.10;99.90
27544;DHT22;17996;51.056;3.656;2022-11-11T17:54:01;10.90;99.90
27544;DHT22;17996;51.056;3.656;2022-11-11T17:56:26;10.90;99.90
27544;DHT22;17996;51.056;3.656;2022-11-11T17:58:53;10.80;99.90
27544;DHT22;17996;51.056;3.656;2022-11-11T18:01:20;10.80;99.90
27544;DHT22;17996;51.056;3.656;2022-11-11T18:03:45;10.80;99.90
27544;DHT22;17996;51.056;3.656;2022-11-11T18:06:11;10.80;99.90
27544;DHT22;17996;51.056;3.656;2022-11-11T18:08:37;10.80;99.90
27544;DHT22;17996;51.056;3.656;2022-11-11T18:11:05;10.90;99.90
27544;DHT22;17996;51.056;3.656;2022-11-11T18:13:32;10.80;99.90
27544;DHT22;17996;51.056;3.656;2022-11-11T18:15:58;10.80;99.90
27544;DHT22;17996;51.056;3.656;2022-11-11T18:18:25;10.80;99.90
27544;DHT22;17996;51.056;3.656;2022-11-11T18:20:52;10.80;99.90
27544;DHT22;17996;51.056;3.656;2022-11-11T18:23:18;10.70;99.90
27544;DHT22;17996;51.056;3.656;2022-11-11T18:25:43;10.80;99.90
27544;DHT22;17996;51.056;3.656;2022-11-11T18:28:09;10.70;99.90
27544;DHT22;17996;51.056;3.656;2022-11-11T18:30:35;10.70;99.90
27544;DHT22;17996;51.056;3.656;2022-11-11T18:33:01;10.90;99.90
27544;DHT22;17996;51.056;3.656;2022-11-11T18:35:27;10.70;99.90